Time;durP1;ratioP1;P1;durP2;ratioP2;P2;SDS_P1;SDS_P2;PMS_P1;PMS_P2;Temp;Humidity;BMP_temperature;BMP_pressure;BME280_temperature;BME280_humidity;BME280_pressure;Samples;Min_cycle;Max_cycle;Signal;HPM_P1;HPM_P2
2022/03/04 00:01:39;;;;;;;14.95;7.75;;;;;;;6.43;39.69;101915.28;4971103;28;122873;-84
2022/03/04 00:04:09;;;;;;;14.98;8.48;;;;;;;6.40;39.86;101906.53;4971668;28;114889;-84
2022/03/04 00:06:36;;;;;;;17.23;8.23;;;;;;;6.37;39.87;101910.09;4957092;28;114060;-84
2022/03/04 00:09:03;;;;;;;16.65;7.72;;;;;;;6.35;39.85;101911.00;4971954;28;123498;-84
2022/03/04 00:11:30;;;;;;;15.93;7.82;;;;;;;6.32;39.83;101914.50;4939597;28;123151;-84
2022/03/04 00:13:58;;;;;;;16.27;8.02;;;;;;;6.30;40.01;101913.66;4956912;28;114084;-84
2022/03/04 00:16:25;;;;;;;14.90;7.63;;;;;;;6.29;39.94;101917.19;4956250;28;112439;-83
2022/03/04 00:19:08;;;;;;;18.83;8.40;;;;;;;6.28;40.29;101910.19;4956499;28;124707;-84
2022/03/04 00:21:42;;;;;;;16.58;8.27;;;;;;;6.26;39.83;101911.97;4955767;28;122774;-84
2022/03/04 00:24:11;;;;;;;15.98;8.00;;;;;;;6.24;39.81;101925.13;4970851;28;113761;-84
2022/03/04 00:26:39;;;;;;;15.50;8.02;;;;;;;6.22;40.01;101926.03;4955921;28;113710;-84
2022/03/04 00:29:07;;;;;;;16.25;7.85;;;;;;;6.19;39.74;101926.06;4972022;28;123872;-84
2022/03/04 00:31:34;;;;;;;18.42;8.90;;;;;;;6.18;39.98;101934.84;4953650;28;123212;-85
2022/03/04 00:34:06;;;;;;;17.48;8.45;;;;;;;6.13;40.00;101936.63;4971121;28;114078;-85
2022/03/04 00:36:38;;;;;;;20.05;8.45;;;;;;;6.10;40.21;101936.66;4972875;28;114035;-85
2022/03/04 00:39:08;;;;;;;14.40;7.68;;;;;;;6.06;40.27;101940.19;4969903;28;124008;-84
2022/03/04 00:41:36;;;;;;;18.92;8.65;;;;;;;6.03;40.41;101941.97;4954212;28;123821;-85
2022/03/04 00:44:04;;;;;;;15.55;8.30;;;;;;;6.00;40.38;101936.72;4954209;28;114469;-85
2022/03/04 00:46:31;;;;;;;15.63;7.93;;;;;;;5.96;40.37;101940.28;4954650;28;114278;-85
2022/03/04 00:48:58;;;;;;;18.17;8.73;;;;;;;5.94;40.36;101942.00;4953882;28;123873;-85
2022/03/04 00:51:26;;;;;;;18.73;8.73;;;;;;;5.94;40.31;101942.00;4953158;28;122826;-84
2022/03/04 00:53:53;;;;;;;18.20;8.52;;;;;;;5.90;40.49;101942.06;4954659;28;114273;-85
2022/03/04 00:56:20;;;;;;;17.63;8.45;;;;;;;5.89;40.43;101938.53;4970786;28;112688;-85
2022/03/04 00:58:48;;;;;;;18.60;8.50;;;;;;;5.88;40.64;101942.06;4955737;28;124824;-85
2022/03/04 01:01:16;;;;;;;19.85;8.80;;;;;;;5.87;40.56;101950.81;4937936;28;124213;-84
2022/03/04 01:03:43;;;;;;;19.10;8.30;;;;;;;5.85;40.75;101944.72;4954622;28;113406;-84
2022/03/04 01:06:11;;;;;;;17.08;8.18;;;;;;;5.85;40.40;101942.09;4938881;28;113499;-85
2022/03/04 01:08:38;;;;;;;16.55;8.40;;;;;;;5.82;40.52;101942.09;4970750;28;123060;-84
2022/03/04 01:11:05;;;;;;;15.45;8.60;;;;;;;5.81;40.48;101945.63;4957003;28;124630;-85
2022/03/04 01:13:33;;;;;;;17.67;8.18;;;;;;;5.78;40.87;101940.38;4973973;28;114085;-85
2022/03/04 01:16:00;;;;;;;15.98;8.25;;;;;;;5.76;40.64;101939.53;4956657;28;113268;-85
2022/03/04 01:18:28;;;;;;;17.20;8.52;;;;;;;5.73;41.06;101942.19;4940363;28;122256;-83
2022/03/04 01:20:55;;;;;;;18.55;8.82;;;;;;;5.71;40.66;101943.94;4954991;28;123433;-85
2022/03/04 01:23:23;;;;;;;18.65;8.40;;;;;;;5.68;41.01;101943.97;4971030;28;113840;-84
2022/03/04 01:25:52;;;;;;;19.63;9.02;;;;;;;5.65;40.91;101943.13;4955349;28;115147;-84
2022/03/04 01:28:20;;;;;;;19.05;9.13;;;;;;;5.64;40.99;101943.13;4954065;28;123713;-84
2022/03/04 01:30:48;;;;;;;16.05;8.32;;;;;;;5.64;40.86;101943.97;4936777;28;124056;-85
2022/03/04 01:33:15;;;;;;;16.45;8.93;;;;;;;5.64;41.04;101938.72;4952458;28;115970;-85
2022/03/04 01:35:43;;;;;;;21.20;9.15;;;;;;;5.63;41.03;101947.50;4970094;28;115072;-84
2022/03/04 01:38:10;;;;;;;17.13;8.15;;;;;;;5.60;40.99;101937.00;4969191;28;123228;-85
2022/03/04 01:40:37;;;;;;;16.77;8.05;;;;;;;5.56;40.87;101935.28;4968353;28;123467;-84
2022/03/04 01:43:04;;;;;;;17.02;8.70;;;;;;;5.52;41.21;101938.81;4953087;28;113256;-85
2022/03/04 01:45:31;;;;;;;18.60;9.05;;;;;;;5.47;41.16;101932.72;4954052;28;114717;-84
2022/03/04 01:47:59;;;;;;;20.52;9.30;;;;;;;5.42;41.26;101943.22;4952464;28;122631;-85
2022/03/04 01:50:27;;;;;;;20.27;9.50;;;;;;;5.38;41.30;101940.66;4951980;28;123071;-85
2022/03/04 01:52:54;;;;;;;19.63;8.43;;;;;;;5.34;41.06;101928.41;4952567;28;114484;-84
2022/03/04 01:55:23;;;;;;;17.83;9.05;;;;;;;5.33;41.50;101931.91;4968962;28;113443;-85
2022/03/04 01:57:51;;;;;;;22.73;10.30;;;;;;;5.30;41.50;101931.94;4968503;28;123682;-85
2022/03/04 02:00:19;;;;;;;18.02;9.15;;;;;;;5.29;41.61;101928.44;4968248;28;124979;-87
2022/03/04 02:02:48;;;;;;;19.65;8.85;;;;;;;5.28;41.46;101929.31;4953934;28;114551;-85
2022/03/04 02:05:18;;;;;;;19.88;10.23;;;;;;;5.26;41.63;101931.97;4973091;28;112976;-85
2022/03/04 02:07:45;;;;;;;19.60;9.35;;;;;;;5.25;41.58;101930.22;4969251;28;122187;-85
2022/03/04 02:10:13;;;;;;;22.45;9.80;;;;;;;5.22;41.61;101924.13;4969474;28;124255;-84
2022/03/04 02:12:40;;;;;;;24.00;9.05;;;;;;;5.20;41.68;101921.50;4969574;28;113039;-85
2022/03/04 02:15:08;;;;;;;19.08;9.45;;;;;;;5.19;41.48;101916.25;4969502;28;113442;-85
2022/03/04 02:17:36;;;;;;;20.83;9.68;;;;;;;5.16;41.83;101925.03;4969114;28;123714;-85
2022/03/04 02:20:04;;;;;;;19.25;9.23;;;;;;;5.14;41.62;101913.66;4969582;28;123853;-84
2022/03/04 02:22:32;;;;;;;21.73;9.60;;;;;;;5.12;41.75;101918.00;4985807;28;115188;-85
2022/03/04 02:25:00;;;;;;;19.65;9.93;;;;;;;5.08;41.82;101921.53;4992189;28;114210;-84
2022/03/04 02:27:28;;;;;;;20.23;9.43;;;;;;;5.06;41.53;101928.56;4992226;28;124003;-84
2022/03/04 02:29:55;;;;;;;20.38;9.50;;;;;;;5.02;41.84;101916.31;4990912;28;123102;-85
2022/03/04 02:32:22;;;;;;;19.15;9.23;;;;;;;5.01;41.88;101914.56;4992346;28;114286;-85
2022/03/04 02:34:50;;;;;;;22.17;9.60;;;;;;;4.98;41.88;101920.72;4976114;28;113155;-85
2022/03/04 02:37:18;;;;;;;23.02;9.77;;;;;;;4.94;41.93;101924.25;5010465;28;124160;-85
2022/03/04 02:39:45;;;;;;;21.00;9.68;;;;;;;4.91;41.95;101919.00;4993344;28;123749;-84
2022/03/04 02:42:12;;;;;;;26.30;10.27;;;;;;;4.88;42.16;101919.88;4978315;28;113239;-85
2022/03/04 02:44:39;;;;;;;21.90;9.48;;;;;;;4.86;42.34;101916.41;4993858;28;114230;-84
2022/03/04 02:47:07;;;;;;;19.70;9.93;;;;;;;4.85;42.44;101911.16;4975886;28;122776;-84
2022/03/04 02:49:34;;;;;;;22.83;9.73;;;;;;;4.83;42.42;101911.16;4991366;28;124876;-85
2022/03/04 02:52:01;;;;;;;19.75;9.82;;;;;;;4.82;42.32;101912.03;4990728;28;113315;-84
2022/03/04 02:54:28;;;;;;;19.45;9.30;;;;;;;4.80;42.25;101916.44;4991421;28;113618;-85
2022/03/04 02:56:56;;;;;;;20.27;9.70;;;;;;;4.80;42.59;101913.81;4991379;28;122653;-85
2022/03/04 02:59:23;;;;;;;23.08;9.70;;;;;;;4.79;42.38;101908.56;4983398;28;122770;-84
2022/03/04 03:01:50;;;;;;;21.20;9.88;;;;;;;4.78;42.59;101907.66;4971587;28;114108;-85
2022/03/04 03:04:19;;;;;;;19.65;9.40;;;;;;;4.78;42.60;101907.66;4994002;28;112656;-85
2022/03/04 03:06:46;;;;;;;23.35;9.90;;;;;;;4.77;42.43;101911.19;4995116;28;123160;-82
2022/03/04 03:09:13;;;;;;;20.15;10.05;;;;;;;4.76;42.59;101909.41;4978895;28;123779;-84
2022/03/04 03:11:40;;;;;;;22.45;9.52;;;;;;;4.75;42.60;101918.19;4978005;28;114603;-83
2022/03/04 03:14:07;;;;;;;22.70;9.70;;;;;;;4.75;42.66;101918.19;4978691;28;115012;-83
2022/03/04 03:16:34;;;;;;;20.27;9.88;;;;;;;4.74;42.61;101921.69;4978376;28;125196;-83
2022/03/04 03:19:02;;;;;;;21.15;9.52;;;;;;;4.72;42.65;101928.69;4994217;28;123721;-83
2022/03/04 03:21:29;;;;;;;21.65;10.02;;;;;;;4.71;42.76;101926.97;4994001;28;112439;-84
2022/03/04 03:23:56;;;;;;;21.55;10.27;;;;;;;4.71;42.80;101928.69;4995174;28;113279;-83
2022/03/04 03:26:23;;;;;;;22.08;9.40;;;;;;;4.71;42.68;101932.22;4994338;28;123688;-83
2022/03/04 03:28:51;;;;;;;20.00;9.90;;;;;;;4.70;42.54;101934.84;5013150;28;123859;-84
2022/03/04 03:31:18;;;;;;;22.65;10.25;;;;;;;4.68;42.72;101937.44;4994265;28;113864;-84
2022/03/04 03:33:45;;;;;;;19.95;9.15;;;;;;;4.67;42.80;101931.34;4994714;28;112995;-83
2022/03/04 03:36:15;;;;;;;22.13;10.20;;;;;;;4.65;42.85;101926.94;4978041;28;124813;-84
2022/03/04 03:38:42;;;;;;;22.90;10.23;;;;;;;4.63;42.24;101934.84;4994511;28;122120;-83
2022/03/04 03:41:09;;;;;;;23.42;9.65;;;;;;;4.63;42.90;101936.59;4976690;28;115558;-84
2022/03/04 03:43:40;;;;;;;20.90;10.20;;;;;;;4.60;43.11;101934.00;4978914;28;114474;-83
2022/03/04 03:46:08;;;;;;;21.65;9.63;;;;;;;4.59;43.01;101932.22;4993690;28;122267;-83
2022/03/04 03:48:40;;;;;;;19.63;9.43;;;;;;;4.58;43.01;101927.88;4994195;28;122813;-84
2022/03/04 03:51:08;;;;;;;17.65;9.23;;;;;;;4.58;42.98;101934.00;4992984;28;114135;-82
2022/03/04 03:53:36;;;;;;;20.48;9.68;;;;;;;4.59;43.02;101926.97;4995416;28;113948;-84
2022/03/04 03:56:04;;;;;;;22.17;10.32;;;;;;;4.58;43.10;101933.13;4994486;28;123096;-84
2022/03/04 03:58:31;;;;;;;24.17;9.45;;;;;;;4.57;43.12;101939.22;4995983;28;123018;-84
2022/03/04 04:00:59;;;;;;;21.23;10.38;;;;;;;4.57;43.29;101939.22;4984801;28;115083;-84
2022/03/04 04:03:26;;;;;;;25.02;10.48;;;;;;;4.56;43.03;101934.84;5021443;28;115322;-84
2022/03/04 04:05:54;;;;;;;22.00;10.13;;;;;;;4.54;43.07;101939.22;5013870;28;123296;-82
2022/03/04 04:08:22;;;;;;;21.38;9.68;;;;;;;4.54;43.10;101944.47;5001460;28;123376;-83
2022/03/04 04:10:49;;;;;;;21.90;10.63;;;;;;;4.53;43.15;101953.25;5014601;28;113809;-82
2022/03/04 04:13:16;;;;;;;23.70;10.70;;;;;;;4.52;43.31;101943.59;5014640;28;114938;-83
2022/03/04 04:15:43;;;;;;;22.98;10.32;;;;;;;4.52;43.30;101946.22;4980758;28;122371;-84
2022/03/04 04:18:10;;;;;;;24.77;10.38;;;;;;;4.52;43.24;101946.22;4979968;28;122103;-84
2022/03/04 04:20:37;;;;;;;23.33;10.52;;;;;;;4.51;43.41;101957.63;4979040;28;114468;-84
2022/03/04 04:23:05;;;;;;;19.05;9.98;;;;;;;4.51;43.35;101949.75;4996205;28;113860;-83
2022/03/04 04:25:32;;;;;;;22.75;10.60;;;;;;;4.51;43.41;101949.75;5012794;28;124046;-84
2022/03/04 04:27:59;;;;;;;23.40;10.80;;;;;;;4.49;43.36;101955.84;4995733;28;123682;-84
2022/03/04 04:30:27;;;;;;;24.55;10.60;;;;;;;4.48;43.69;101956.75;4978608;28;113650;-83
2022/03/04 04:32:55;;;;;;;23.55;10.38;;;;;;;4.44;43.54;101947.13;4995948;28;113706;-83
2022/03/04 04:35:22;;;;;;;21.15;9.90;;;;;;;4.45;43.28;101954.13;4994946;28;123543;-84
2022/03/04 04:37:49;;;;;;;27.52;11.05;;;;;;;4.43;43.40;101955.88;4995060;28;122681;-83
2022/03/04 04:40:18;;;;;;;25.65;10.73;;;;;;;4.43;43.55;101952.38;5012146;28;115123;-84
2022/03/04 04:42:46;;;;;;;25.05;10.73;;;;;;;4.42;43.54;101951.50;4996086;28;113289;-84
2022/03/04 04:45:13;;;;;;;22.02;10.45;;;;;;;4.42;43.48;101956.75;4994903;28;123766;-84
2022/03/04 04:47:40;;;;;;;24.33;10.88;;;;;;;4.39;43.26;101962.00;4978080;28;123561;-84
2022/03/04 04:50:08;;;;;;;26.65;11.57;;;;;;;4.36;43.35;101951.50;4993546;28;115131;-83
2022/03/04 04:52:35;;;;;;;23.63;11.05;;;;;;;4.34;43.40;101958.50;4986912;28;113280;-83
2022/03/04 04:55:03;;;;;;;26.33;10.88;;;;;;;4.34;43.62;101957.66;5001258;28;123584;-82
2022/03/04 04:57:30;;;;;;;26.50;11.13;;;;;;;4.30;43.57;101956.78;5002504;28;123518;-80
2022/03/04 04:59:57;;;;;;;24.48;11.77;;;;;;;4.27;43.47;101959.38;4998035;28;113556;-83
2022/03/04 05:02:25;;;;;;;23.90;11.10;;;;;;;4.25;43.34;101966.38;4986597;28;112585;-83
2022/03/04 05:04:52;;;;;;;25.70;10.93;;;;;;;4.22;43.68;101953.25;5018270;28;123341;-83
2022/03/04 05:07:19;;;;;;;26.33;11.30;;;;;;;4.20;43.39;101965.50;5020150;28;124322;-82
2022/03/04 05:09:46;;;;;;;25.75;11.95;;;;;;;4.18;43.74;101967.25;4998397;28;115100;-82
2022/03/04 05:12:14;;;;;;;25.52;11.35;;;;;;;4.17;43.73;101960.28;4999397;28;113327;-81
2022/03/04 05:14:41;;;;;;;26.17;12.05;;;;;;;4.13;43.82;101959.41;5000765;28;123239;-82
2022/03/04 05:17:08;;;;;;;29.20;11.68;;;;;;;4.13;43.56;101971.66;5001349;28;124692;-82
2022/03/04 05:19:35;;;;;;;27.38;11.60;;;;;;;4.08;43.85;101972.50;5018549;28;112416;-81
2022/03/04 05:22:02;;;;;;;27.52;11.88;;;;;;;4.05;44.03;101967.28;5001459;28;112451;-81
2022/03/04 05:24:31;;;;;;;25.65;11.90;;;;;;;4.01;43.74;101978.63;5001625;28;123493;-82
2022/03/04 05:26:58;;;;;;;27.70;12.15;;;;;;;4.00;43.97;101974.25;5017906;28;124415;-82
2022/03/04 05:29:25;;;;;;;28.33;12.05;;;;;;;3.97;44.15;101974.25;5019222;28;114759;-82
2022/03/04 05:31:55;;;;;;;27.85;11.60;;;;;;;3.95;44.26;101972.50;5002390;28;113815;-82
2022/03/04 05:34:22;;;;;;;28.15;11.65;;;;;;;3.93;44.29;101982.97;5018665;28;123536;-81
2022/03/04 05:36:49;;;;;;;25.17;11.75;;;;;;;3.90;44.24;101977.75;5002032;28;125568;-81
2022/03/04 05:39:16;;;;;;;26.00;11.85;;;;;;;3.88;44.30;101979.47;5018169;28;115118;-81
2022/03/04 05:41:43;;;;;;;26.00;11.95;;;;;;;3.87;44.21;101982.97;5018143;28;115470;-82
2022/03/04 05:44:11;;;;;;;27.40;12.27;;;;;;;3.84;44.24;101982.97;5001839;28;123908;-81
2022/03/04 05:46:38;;;;;;;24.48;11.55;;;;;;;3.82;44.10;101987.34;5001643;28;123322;-81
2022/03/04 05:49:05;;;;;;;27.20;12.48;;;;;;;3.80;44.44;101989.09;5018600;28;114877;-81
2022/03/04 05:51:33;;;;;;;29.85;12.68;;;;;;;3.79;44.44;101990.84;5001211;28;113957;-81
2022/03/04 05:54:00;;;;;;;29.58;12.70;;;;;;;3.79;44.42;102005.69;5018333;28;124920;-81
2022/03/04 05:56:27;;;;;;;30.23;11.80;;;;;;;3.77;44.57;102008.31;4992067;28;122538;-82
2022/03/04 05:58:55;;;;;;;32.53;13.48;;;;;;;3.77;44.46;102013.53;5004984;28;113674;-82
2022/03/04 06:01:22;;;;;;;31.90;12.52;;;;;;;3.76;44.63;102003.06;4999049;28;113502;-83
2022/03/04 06:03:50;;;;;;;28.67;12.27;;;;;;;3.74;44.88;102007.41;4978176;28;123391;-83
2022/03/04 06:06:17;;;;;;;28.65;13.00;;;;;;;3.73;44.63;102010.91;4977063;28;123202;-82
2022/03/04 06:08:48;;;;;;;27.63;12.18;;;;;;;3.72;44.88;102011.78;4977396;28;112931;-82
2022/03/04 06:11:15;;;;;;;30.45;13.15;;;;;;;3.72;44.45;102014.41;4991981;28;114140;-83
2022/03/04 06:13:42;;;;;;;29.35;12.98;;;;;;;3.70;44.64;102012.66;4975876;28;122158;-83
2022/03/04 06:16:10;;;;;;;32.00;12.68;;;;;;;3.72;44.79;102014.41;4993309;28;122969;-83
2022/03/04 06:18:37;;;;;;;30.05;12.88;;;;;;;3.69;45.12;102016.16;5013593;28;114061;-82
2022/03/04 06:21:04;;;;;;;29.20;12.38;;;;;;;3.68;45.00;102009.16;5005373;28;113384;-82
2022/03/04 06:23:31;;;;;;;27.63;12.00;;;;;;;3.68;44.78;102013.53;4996443;28;123312;-83
2022/03/04 06:25:59;;;;;;;28.38;12.55;;;;;;;3.69;44.98;102015.25;4994462;28;123489;-82
2022/03/04 06:28:27;;;;;;;28.73;12.80;;;;;;;3.66;45.01;102018.75;4977900;28;114491;-83
2022/03/04 06:30:54;;;;;;;32.90;13.13;;;;;;;3.66;45.21;102021.38;4977491;28;113931;-83
2022/03/04 06:33:30;;;;;;;28.10;12.68;;;;;;;3.65;45.44;102014.38;4996079;28;124667;-83
2022/03/04 06:36:08;;;;;;;27.50;12.57;;;;;;;3.64;45.25;102017.88;4992282;28;124562;-83
2022/03/04 06:38:38;;;;;;;29.90;12.05;;;;;;;3.63;45.28;102016.09;4995499;28;114220;-83
2022/03/04 06:41:05;;;;;;;30.67;12.65;;;;;;;3.64;45.45;102017.88;4994915;28;113788;-83
2022/03/04 06:43:33;;;;;;;25.05;11.80;;;;;;;3.66;45.52;102015.25;4997422;28;123549;-83
2022/03/04 06:46:02;;;;;;;30.20;12.73;;;;;;;3.66;45.29;102016.13;4998935;28;124343;-84
2022/03/04 06:48:30;;;;;;;27.90;12.00;;;;;;;3.67;45.22;102015.28;4979595;28;113476;-83
2022/03/04 06:50:58;;;;;;;29.77;12.63;;;;;;;3.68;45.38;102022.25;4978457;28;112875;-83
2022/03/04 06:53:25;;;;;;;27.55;12.30;;;;;;;3.69;45.34;102026.63;4995555;28;123249;-83
2022/03/04 06:55:52;;;;;;;31.15;12.32;;;;;;;3.69;45.66;102024.00;4996725;28;123625;-84
2022/03/04 06:58:20;;;;;;;26.80;12.43;;;;;;;3.71;45.59;102024.00;4979875;28;113645;-84
2022/03/04 07:00:47;;;;;;;31.83;12.93;;;;;;;3.77;45.90;102028.38;4995220;28;114287;-83
2022/03/04 07:03:15;;;;;;;29.00;11.93;;;;;;;3.83;46.05;102028.41;4978869;28;123172;-83
2022/03/04 07:05:46;;;;;;;29.92;12.43;;;;;;;3.92;45.91;102043.25;4994637;28;124184;-83
2022/03/04 07:08:13;;;;;;;31.13;12.25;;;;;;;4.01;46.20;102043.28;4994727;28;114422;-83
2022/03/04 07:10:45;;;;;;;28.92;12.43;;;;;;;4.08;46.14;102035.41;4978077;28;113072;-83
2022/03/04 07:13:12;;;;;;;25.50;11.93;;;;;;;4.18;46.21;102040.66;4995039;28;123370;-83
2022/03/04 07:15:41;;;;;;;30.75;11.88;;;;;;;4.27;45.99;102043.31;4994688;28;124090;-83
2022/03/04 07:18:09;;;;;;;29.85;12.73;;;;;;;4.38;46.55;102048.56;4978649;28;114811;-83
2022/03/04 07:20:36;;;;;;;29.20;12.90;;;;;;;4.49;46.27;102052.91;4996210;28;115018;-82
2022/03/04 07:23:05;;;;;;;24.77;12.02;;;;;;;4.58;46.32;102057.31;4980482;28;124022;-83
2022/03/04 07:25:33;;;;;;;28.60;11.70;;;;;;;4.68;46.28;102058.16;4997193;28;123746;-83
2022/03/04 07:28:01;;;;;;;30.83;12.65;;;;;;;4.75;46.34;102054.66;4980838;28;113547;-83
2022/03/04 07:30:28;;;;;;;27.20;12.50;;;;;;;4.80;46.24;102052.91;4980095;28;112490;-83
2022/03/04 07:32:55;;;;;;;27.27;12.43;;;;;;;4.84;46.24;102054.66;4979872;28;123422;-82
2022/03/04 07:35:22;;;;;;;29.30;12.23;;;;;;;4.89;46.20;102057.25;4996849;28;124174;-82
2022/03/04 07:37:49;;;;;;;30.08;12.35;;;;;;;4.94;46.41;102060.75;4980513;28;112964;-82
2022/03/04 07:40:17;;;;;;;28.90;12.85;;;;;;;4.98;46.13;102061.63;4979388;28;113561;-82
2022/03/04 07:42:44;;;;;;;29.98;13.40;;;;;;;5.03;46.16;102054.63;4995333;28;122991;-83
2022/03/04 07:45:12;;;;;;;29.65;12.93;;;;;;;5.06;46.22;102055.44;5014702;28;124045;-83
2022/03/04 07:47:41;;;;;;;25.75;12.50;;;;;;;5.12;46.27;102061.56;4995611;28;114493;-83
2022/03/04 07:50:12;;;;;;;27.65;12.30;;;;;;;5.17;46.31;102063.31;5016504;28;113905;-83
2022/03/04 07:52:40;;;;;;;27.52;12.18;;;;;;;5.23;46.29;102062.41;5024372;28;124121;-82
2022/03/04 07:55:15;;;;;;;31.38;12.95;;;;;;;5.26;46.24;102068.53;5006500;28;122618;-83
2022/03/04 07:57:44;;;;;;;25.33;12.32;;;;;;;5.31;46.35;102065.00;4998884;28;114457;-83
2022/03/04 08:00:14;;;;;;;29.15;12.95;;;;;;;5.35;46.33;102062.38;4978778;28;113414;-83
2022/03/04 08:02:41;;;;;;;24.98;11.63;;;;;;;5.40;46.43;102067.59;4978934;28;123257;-82
2022/03/04 08:05:10;;;;;;;25.48;12.10;;;;;;;5.45;46.28;102064.09;4993848;28;122833;-82
2022/03/04 08:07:38;;;;;;;27.08;12.38;;;;;;;5.49;46.22;102064.94;5011579;28;115246;-83
2022/03/04 08:10:07;;;;;;;29.42;12.65;;;;;;;5.54;46.34;102068.44;4993234;28;115080;-83
2022/03/04 08:12:35;;;;;;;27.90;12.60;;;;;;;5.59;46.31;102069.28;4976739;28;123840;-81
2022/03/04 08:15:03;;;;;;;24.60;11.85;;;;;;;5.64;46.26;102082.41;4993811;28;123117;-83
2022/03/04 08:17:31;;;;;;;27.02;12.13;;;;;;;5.68;46.27;102075.38;4993730;28;112674;-83
2022/03/04 08:19:58;;;;;;;27.05;11.98;;;;;;;5.72;46.44;102077.09;4976546;28;113498;-82
2022/03/04 08:22:25;;;;;;;27.63;12.00;;;;;;;5.76;46.29;102074.44;4977067;28;122165;-82
2022/03/04 08:24:54;;;;;;;27.48;12.23;;;;;;;5.80;46.28;102081.47;4979411;28;123500;-83
2022/03/04 08:27:21;;;;;;;24.83;11.30;;;;;;;5.88;46.59;102089.31;4979387;28;113516;-83
2022/03/04 08:29:48;;;;;;;24.67;12.10;;;;;;;5.93;46.25;102087.50;4996021;28;113682;-82
2022/03/04 08:32:16;;;;;;;23.25;11.25;;;;;;;6.00;46.30;102086.63;4979938;28;123106;-82
2022/03/04 08:34:44;;;;;;;26.52;12.30;;;;;;;6.08;46.59;102101.47;4996438;28;123369;-82
2022/03/04 08:37:11;;;;;;;24.38;11.27;;;;;;;6.15;46.43;102100.56;4997059;28;113884;-83
2022/03/04 08:39:38;;;;;;;24.98;12.02;;;;;;;6.21;46.51;102103.16;4979955;28;112717;-81
2022/03/04 08:42:07;;;;;;;24.38;11.57;;;;;;;6.28;46.53;102104.88;4979199;28;122177;-83
2022/03/04 08:44:34;;;;;;;24.73;11.25;;;;;;;6.36;46.87;102108.31;5014822;28;123823;-82
2022/03/04 08:47:03;;;;;;;23.77;10.82;;;;;;;6.46;46.71;102102.97;4996273;28;114021;-83
2022/03/04 08:49:31;;;;;;;24.70;11.85;;;;;;;6.55;46.50;102109.03;4980843;28;113230;-82
2022/03/04 08:51:59;;;;;;;26.60;11.43;;;;;;;6.65;46.61;102109.84;4998959;28;124105;-82
2022/03/04 08:54:26;;;;;;;26.35;10.85;;;;;;;6.74;46.35;102115.06;4983327;28;122709;-82
2022/03/04 08:56:53;;;;;;;23.92;10.70;;;;;;;6.85;46.27;102106.16;4994605;28;113647;-82
2022/03/04 08:59:21;;;;;;;25.10;11.43;;;;;;;6.94;46.18;102108.72;5012774;28;115030;-82
2022/03/04 09:01:48;;;;;;;26.92;11.82;;;;;;;7.05;46.49;102104.22;4991787;28;123898;-80
2022/03/04 09:04:17;;;;;;;23.63;11.55;;;;;;;7.17;46.12;102104.06;4993908;28;122896;-82
2022/03/04 09:06:45;;;;;;;25.65;11.13;;;;;;;7.29;46.12;102110.09;4995151;28;114316;-82
2022/03/04 09:09:13;;;;;;;24.83;12.00;;;;;;;7.40;45.94;102089.78;4995127;28;114233;-82
2022/03/04 09:11:41;;;;;;;22.63;11.07;;;;;;;7.52;46.06;102092.28;4993641;28;122725;-83
2022/03/04 09:14:08;;;;;;;24.15;10.88;;;;;;;7.65;45.78;102100.00;4995264;28;123564;-82
2022/03/04 09:16:35;;;;;;;21.83;10.40;;;;;;;7.78;46.11;102096.34;4978562;28;114275;-82
2022/03/04 09:19:03;;;;;;;25.05;10.60;;;;;;;7.90;45.87;102090.91;4979718;28;113411;-83
2022/03/04 09:21:30;;;;;;;24.40;10.60;;;;;;;8.03;45.62;102096.03;4993052;28;122022;-83
2022/03/04 09:23:58;;;;;;;22.90;10.40;;;;;;;8.17;45.79;102099.31;4994835;28;123562;-83
2022/03/04 09:26:27;;;;;;;23.50;10.52;;;;;;;8.28;45.22;102100.03;4994916;28;114190;-83
2022/03/04 09:28:54;;;;;;;25.60;11.70;;;;;;;8.38;44.89;102093.72;4977707;28;113198;-83
2022/03/04 09:31:21;;;;;;;24.92;10.80;;;;;;;8.51;45.08;102085.63;4975912;28;123271;-82
2022/03/04 09:33:49;;;;;;;25.95;11.13;;;;;;;8.63;44.96;102090.72;4976296;28;122749;-83
2022/03/04 09:36:16;;;;;;;23.80;10.65;;;;;;;8.75;44.68;102095.78;4992711;28;114568;-83
2022/03/04 09:38:43;;;;;;;21.98;10.70;;;;;;;8.87;44.79;102096.44;4976881;28;112731;-83
2022/03/04 09:41:11;;;;;;;21.00;10.55;;;;;;;8.97;44.26;102092.75;4991127;28;123587;-83
2022/03/04 09:43:39;;;;;;;22.75;10.35;;;;;;;9.06;44.56;102095.25;5011087;28;125025;-82
2022/03/04 09:46:07;;;;;;;22.77;10.88;;;;;;;9.18;44.21;102095.91;4975236;28;114598;-83
2022/03/04 09:48:39;;;;;;;23.83;11.15;;;;;;;9.29;44.26;102099.22;4992662;28;114830;-83
2022/03/04 09:51:08;;;;;;;21.95;10.98;;;;;;;9.38;44.04;102087.56;4991441;28;123163;-83
2022/03/04 09:53:35;;;;;;;24.83;11.25;;;;;;;9.47;43.98;102097.97;5010757;28;123858;-84
2022/03/04 09:56:04;;;;;;;26.30;11.40;;;;;;;9.59;43.76;102091.53;5013491;28;113882;-83
2022/03/04 09:58:33;;;;;;;24.55;11.23;;;;;;;9.69;43.68;102093.13;4998084;28;115732;-83
2022/03/04 10:01:01;;;;;;;23.80;11.45;;;;;;;9.77;43.83;102091.16;4994203;28;124103;-83
2022/03/04 10:03:28;;;;;;;22.65;11.38;;;;;;;9.86;43.42;102085.66;4999817;28;123500;-83
2022/03/04 10:05:58;;;;;;;20.40;10.82;;;;;;;9.94;43.15;102090.78;5001653;28;113732;-82
2022/03/04 10:08:25;;;;;;;23.10;10.65;;;;;;;10.03;43.08;102084.44;4986151;28;113219;-84
2022/03/04 10:10:55;;;;;;;20.85;11.05;;;;;;;10.13;42.90;102088.59;5016670;28;124056;-82
2022/03/04 10:13:51;;;;;;;19.45;10.38;;;;;;;10.23;42.97;102079.53;4998926;28;123548;-83
2022/03/04 10:16:33;;;;;;;22.67;11.13;;;;;;;10.36;42.88;102084.56;5013983;28;113823;-84
2022/03/04 10:19:18;;;;;;;22.08;11.45;;;;;;;10.48;42.72;102078.97;4984846;28;112256;-83
2022/03/04 10:21:52;;;;;;;20.27;11.05;;;;;;;10.52;42.61;102080.66;4996529;28;123207;-83
2022/03/04 10:24:23;;;;;;;20.98;11.07;;;;;;;10.60;42.75;102083.97;4997159;28;123088;-83
2022/03/04 10:27:12;;;;;;;24.00;11.73;;;;;;;10.68;42.26;102082.00;4997801;28;112550;-83
2022/03/04 10:29:48;;;;;;;22.85;11.45;;;;;;;10.78;42.39;102079.13;4981983;28;114066;-84
2022/03/04 10:32:22;;;;;;;21.92;11.48;;;;;;;10.82;42.16;102078.13;4979397;28;124333;-83
2022/03/04 10:34:56;;;;;;;23.88;11.95;;;;;;;10.92;42.15;102082.25;4980397;28;123395;-81
2022/03/04 10:37:54;;;;;;;25.00;11.80;;;;;;;11.01;42.27;102074.06;4979939;28;114368;-82
2022/03/04 10:40:29;;;;;;;23.40;11.63;;;;;;;11.12;41.92;102075.56;5013739;28;115017;-82
2022/03/04 10:43:05;;;;;;;20.80;11.30;;;;;;;11.20;42.01;102068.25;4996726;28;124110;-82
2022/03/04 10:45:35;;;;;;;24.23;12.32;;;;;;;11.31;41.64;102066.19;4979160;28;123646;-82
2022/03/04 10:48:07;;;;;;;23.77;11.75;;;;;;;11.39;41.68;102069.47;4997493;28;114110;-82
2022/03/04 10:50:35;;;;;;;23.98;12.23;;;;;;;11.49;41.91;102065.66;4995654;28;113559;-82
2022/03/04 10:53:14;;;;;;;22.95;11.52;;;;;;;11.60;41.49;102061.78;4996469;28;122263;-82
2022/03/04 10:55:46;;;;;;;24.95;12.25;;;;;;;11.66;41.41;102056.34;4998319;28;122855;-82
2022/03/04 10:58:16;;;;;;;22.38;11.73;;;;;;;11.73;41.24;102067.63;4996811;28;114185;-83
2022/03/04 11:00:45;;;;;;;19.33;12.23;;;;;;;11.79;41.50;102065.66;4996906;28;113081;-83
2022/03/04 11:03:21;;;;;;;24.40;12.25;;;;;;;11.88;41.01;102073.34;4995954;28;124036;-83
2022/03/04 11:05:51;;;;;;;23.27;12.23;;;;;;;11.98;41.24;102059.78;4980014;28;123379;-83
2022/03/04 11:08:20;;;;;;;20.75;12.10;;;;;;;12.10;40.98;102056.75;5014400;28;114668;-83
2022/03/04 11:10:49;;;;;;;20.63;11.38;;;;;;;12.19;40.84;102053.81;5014576;28;114368;-83
2022/03/04 11:13:16;;;;;;;22.67;11.60;;;;;;;12.25;40.46;102045.63;4997485;28;124500;-83
2022/03/04 11:15:46;;;;;;;21.75;12.13;;;;;;;12.27;40.24;102054.41;4980575;28;123293;-83
2022/03/04 11:18:17;;;;;;;23.83;12.93;;;;;;;12.35;40.46;102050.66;4997383;28;114044;-83